Time;durP1;ratioP1;P1;durP2;ratioP2;P2;SDS_P1;SDS_P2;PMS_P1;PMS_P2;Temp;Humidity;BMP_temperature;BMP_pressure;BME280_temperature;BME280_humidity;BME280_pressure;Samples;Min_cycle;Max_cycle;Signal;HPM_P1;HPM_P2
2023/05/19 00:01:18;;;;;;;3.97;2.63;;;19.70;67.00;;;;;;4975790;28;20519;-75
2023/05/19 00:03:53;;;;;;;4.10;2.60;;;19.70;67.20;;;;;;4944516;28;20434;-75
2023/05/19 00:06:37;;;;;;;4.83;3.20;;;19.70;67.20;;;;;;4959905;28;20410;-75
2023/05/19 00:09:10;;;;;;;3.40;2.80;;;19.70;67.20;;;;;;4976594;28;20422;-75
2023/05/19 00:11:37;;;;;;;6.13;3.00;;;19.60;67.10;;;;;;4993483;28;20805;-75
2023/05/19 00:14:08;;;;;;;3.67;3.27;;;19.60;67.30;;;;;;4993517;28;20968;-75
2023/05/19 00:16:41;;;;;;;5.67;3.03;;;19.60;67.30;;;;;;4960412;28;20827;-75
2023/05/19 00:19:11;;;;;;;3.10;2.80;;;19.60;67.40;;;;;;4976295;28;20455;-75
2023/05/19 00:21:37;;;;;;;5.10;2.97;;;19.50;67.30;;;;;;4976226;28;20485;-75
2023/05/19 00:24:04;;;;;;;3.83;2.93;;;19.50;67.40;;;;;;4992482;28;20817;-75
2023/05/19 00:26:30;;;;;;;5.23;2.97;;;19.50;67.40;;;;;;4959940;28;20954;-75
2023/05/19 00:29:05;;;;;;;3.70;2.50;;;19.50;67.50;;;;;;4976501;28;20409;-75
2023/05/19 00:31:32;;;;;;;5.43;3.20;;;19.50;67.60;;;;;;4959810;28;20447;-75
2023/05/19 00:34:00;;;;;;;4.30;2.87;;;19.40;67.60;;;;;;4956845;28;20459;-75
2023/05/19 00:36:29;;;;;;;5.57;2.80;;;19.40;67.50;;;;;;4942871;28;20464;-75
2023/05/19 00:39:01;;;;;;;3.53;2.93;;;19.40;67.60;;;;;;4975546;28;21112;-75
2023/05/19 00:41:29;;;;;;;2.80;2.47;;;19.40;67.80;;;;;;4959999;28;20449;-75
2023/05/19 00:43:58;;;;;;;3.67;2.77;;;19.40;67.80;;;;;;4975988;28;20965;-75
2023/05/19 00:46:33;;;;;;;3.27;2.80;;;19.40;67.90;;;;;;5069093;28;20573;-75
2023/05/19 00:49:01;;;;;;;3.30;2.50;;;19.30;68.30;;;;;;5034872;28;20404;-74
2023/05/19 00:51:30;;;;;;;4.23;3.00;;;19.30;67.90;;;;;;5068758;28;20529;-74
2023/05/19 00:53:59;;;;;;;4.20;3.00;;;19.30;68.00;;;;;;5051127;28;20422;-74
2023/05/19 00:56:25;;;;;;;4.17;3.00;;;19.30;68.10;;;;;;5067956;28;20744;-75
2023/05/19 00:58:54;;;;;;;5.40;2.90;;;19.30;68.20;;;;;;5068913;28;20401;-75
2023/05/19 01:01:21;;;;;;;4.00;3.00;;;19.30;68.20;;;;;;5050880;28;20423;-74
2023/05/19 01:03:47;;;;;;;4.93;2.87;;;19.30;68.20;;;;;;5050952;28;21026;-74
2023/05/19 01:06:13;;;;;;;3.77;2.93;;;19.20;68.00;;;;;;5050437;28;20982;-74
2023/05/19 01:08:44;;;;;;;5.53;2.60;;;19.20;68.40;;;;;;5047626;28;20630;-74
2023/05/19 01:11:10;;;;;;;3.53;3.10;;;19.20;68.20;;;;;;5047624;28;20454;-74
2023/05/19 01:13:38;;;;;;;4.10;3.00;;;19.20;68.20;;;;;;5030651;28;20443;-74
2023/05/19 01:16:37;;;;;;;4.50;2.60;;;19.10;68.20;;;;;;5047464;28;20447;-75
2023/05/19 01:19:21;;;;;;;5.13;2.73;;;19.10;68.20;;;;;;5031149;28;20436;-74
2023/05/19 01:22:05;;;;;;;4.10;2.83;;;19.10;68.30;;;;;;5045191;28;20551;-74
2023/05/19 01:25:10;;;;;;;3.60;2.67;;;19.10;68.50;;;;;;5070800;28;20470;-74
2023/05/19 01:28:06;;;;;;;5.47;2.90;;;19.10;68.50;;;;;;5054482;28;20413;-74
2023/05/19 01:30:41;;;;;;;4.37;2.80;;;19.00;68.50;;;;;;5088496;28;20402;-74
2023/05/19 01:33:14;;;;;;;5.00;2.80;;;19.00;68.50;;;;;;5086790;28;20427;-75
2023/05/19 01:35:42;;;;;;;6.17;3.20;;;19.00;68.60;;;;;;5070380;28;20461;-74
2023/05/19 01:38:12;;;;;;;5.47;3.30;;;19.00;68.50;;;;;;5087088;28;20437;-74
2023/05/19 01:40:41;;;;;;;4.30;3.03;;;19.00;68.60;;;;;;5070292;28;20973;-74
2023/05/19 01:43:10;;;;;;;5.10;3.23;;;18.90;68.40;;;;;;5070008;28;20426;-74
2023/05/19 01:45:37;;;;;;;4.10;3.03;;;18.90;68.40;;;;;;5087840;28;20468;-74
2023/05/19 01:48:08;;;;;;;5.03;3.60;;;18.90;68.50;;;;;;5070478;28;20421;-74
2023/05/19 01:50:34;;;;;;;5.00;3.17;;;18.90;68.40;;;;;;5087051;28;20417;-74
2023/05/19 01:53:00;;;;;;;5.73;3.53;;;18.90;68.40;;;;;;5046461;28;20455;-74
2023/05/19 01:55:26;;;;;;;4.30;3.07;;;18.90;68.40;;;;;;5063140;28;20716;-74
2023/05/19 01:58:10;;;;;;;5.13;2.87;;;18.90;68.40;;;;;;5033671;28;20424;-74
2023/05/19 02:00:36;;;;;;;4.77;2.80;;;18.80;68.40;;;;;;5016948;28;20470;-74
2023/05/19 02:03:07;;;;;;;5.00;2.47;;;18.80;68.30;;;;;;5016510;28;20478;-74
2023/05/19 02:05:48;;;;;;;2.87;2.60;;;18.80;68.30;;;;;;5033104;28;20666;-75
2023/05/19 02:08:29;;;;;;;3.73;3.43;;;18.80;68.30;;;;;;5016731;28;20420;-74
2023/05/19 02:11:18;;;;;;;3.13;2.83;;;18.80;68.30;;;;;;5000459;28;20854;-74
2023/05/19 02:13:52;;;;;;;4.40;3.50;;;18.70;68.30;;;;;;5034138;28;20530;-75
2023/05/19 02:16:23;;;;;;;4.50;2.83;;;18.70;68.30;;;;;;5016484;28;20415;-74
2023/05/19 02:18:52;;;;;;;3.33;2.93;;;18.70;68.40;;;;;;5032715;28;20497;-74
2023/05/19 02:21:18;;;;;;;5.27;2.90;;;18.70;68.40;;;;;;5036069;28;20444;-74
2023/05/19 02:23:45;;;;;;;3.10;2.80;;;18.70;68.40;;;;;;5052544;28;20532;-74
2023/05/19 02:26:14;;;;;;;6.33;3.17;;;18.70;68.40;;;;;;5053924;28;20443;-74
2023/05/19 02:28:42;;;;;;;4.20;3.23;;;18.60;68.30;;;;;;5019907;28;20418;-74
2023/05/19 02:31:10;;;;;;;4.20;3.27;;;18.60;68.40;;;;;;5053623;28;20879;-74
2023/05/19 02:33:36;;;;;;;3.30;3.00;;;18.60;68.40;;;;;;5019125;28;20443;-74
2023/05/19 02:36:07;;;;;;;4.30;3.27;;;18.60;68.50;;;;;;5053796;28;20916;-74
2023/05/19 02:38:33;;;;;;;4.17;3.03;;;18.60;68.50;;;;;;5019677;28;20474;-74
2023/05/19 02:40:59;;;;;;;5.93;3.00;;;18.50;68.50;;;;;;5052471;28;20858;-74
2023/05/19 02:43:26;;;;;;;3.40;3.03;;;18.50;68.50;;;;;;5035846;28;20455;-76
2023/05/19 02:45:52;;;;;;;4.10;3.30;;;18.50;68.60;;;;;;5018903;28;20466;-76
2023/05/19 02:48:18;;;;;;;5.43;3.43;;;18.50;68.70;;;;;;5035588;28;20435;-74
2023/05/19 02:50:45;;;;;;;4.30;3.10;;;18.50;68.70;;;;;;5035934;28;20425;-76
2023/05/19 02:53:11;;;;;;;6.67;3.00;;;18.50;68.70;;;;;;5052105;28;20442;-76
2023/05/19 02:55:37;;;;;;;10.27;3.47;;;18.50;68.70;;;;;;5051912;28;20406;-76
2023/05/19 02:58:09;;;;;;;4.83;3.53;;;18.40;68.70;;;;;;5035654;28;20434;-76
2023/05/19 03:00:40;;;;;;;3.40;2.80;;;18.40;68.70;;;;;;5035763;28;20415;-76
2023/05/19 03:03:09;;;;;;;4.00;3.27;;;18.40;68.70;;;;;;5035406;28;20438;-76
2023/05/19 03:05:35;;;;;;;5.87;3.13;;;18.30;68.60;;;;;;5050659;28;20488;-76
2023/05/19 03:08:06;;;;;;;4.00;3.30;;;18.40;68.80;;;;;;5051019;28;20447;-76
2023/05/19 03:10:32;;;;;;;4.67;2.77;;;18.40;68.80;;;;;;5035492;28;20422;-75
2023/05/19 03:12:58;;;;;;;4.93;3.10;;;18.30;68.70;;;;;;5019262;28;20443;-76
2023/05/19 03:15:26;;;;;;;3.30;3.00;;;18.30;68.80;;;;;;5051727;28;20481;-76
2023/05/19 03:17:55;;;;;;;3.90;2.90;;;18.30;68.80;;;;;;5051545;28;20398;-76
2023/05/19 03:20:21;;;;;;;3.40;2.87;;;18.30;68.80;;;;;;5035007;28;20441;-76
2023/05/19 03:22:47;;;;;;;7.73;3.60;;;18.30;68.80;;;;;;5015286;28;20454;-76
2023/05/19 03:25:16;;;;;;;8.53;3.90;;;18.20;68.80;;;;;;4998972;28;20497;-76
2023/05/19 03:27:42;;;;;;;6.33;3.37;;;18.20;68.80;;;;;;5031459;28;20401;-76
2023/05/19 03:32:50;;;;;;;6.50;3.90;;;18.20;68.80;;;;;;4991140;28;20480;-71
2023/05/19 03:35:20;;;;;;;5.10;3.30;;;18.20;68.90;;;;;;4961680;28;20409;-72
2023/05/19 03:37:46;;;;;;;6.53;3.60;;;18.20;68.90;;;;;;4993133;28;20423;-72
2023/05/19 03:40:12;;;;;;;5.87;3.17;;;18.20;68.90;;;;;;4960990;28;20429;-71
2023/05/19 03:42:43;;;;;;;4.23;3.30;;;18.10;68.90;;;;;;4992869;28;20477;-72
2023/05/19 03:45:09;;;;;;;5.10;3.60;;;18.10;69.00;;;;;;4992897;28;20445;-71
2023/05/19 03:47:37;;;;;;;6.43;3.83;;;18.10;69.00;;;;;;4993323;28;20406;-72
2023/05/19 03:50:17;;;;;;;4.60;3.23;;;18.10;69.10;;;;;;4994105;28;20394;-72
2023/05/19 03:53:06;;;;;;;5.20;3.27;;;18.10;69.20;;;;;;4976735;28;20976;-71
2023/05/19 03:55:38;;;;;;;4.77;3.17;;;18.00;69.10;;;;;;4992821;28;20899;-71
2023/05/19 03:58:07;;;;;;;4.37;2.80;;;18.00;69.10;;;;;;4977130;28;20421;-71
2023/05/19 04:00:37;;;;;;;3.57;2.73;;;18.00;69.20;;;;;;4976394;28;20437;-71
2023/05/19 04:03:06;;;;;;;4.67;2.83;;;18.00;69.20;;;;;;4992674;28;20461;-72
2023/05/19 04:05:35;;;;;;;8.30;3.40;;;18.00;69.30;;;;;;4992648;28;20460;-71
2023/05/19 04:08:03;;;;;;;4.20;3.10;;;18.00;69.30;;;;;;5008634;28;20420;-71
2023/05/19 04:10:31;;;;;;;4.53;3.17;;;17.90;69.30;;;;;;4976120;28;20519;-71
2023/05/19 04:13:02;;;;;;;7.13;3.30;;;17.90;69.40;;;;;;5008397;28;20780;-71
2023/05/19 04:15:31;;;;;;;5.27;3.70;;;17.90;69.40;;;;;;4976527;28;20418;-71
2023/05/19 04:17:57;;;;;;;5.40;3.13;;;17.90;69.40;;;;;;4992591;28;20425;-71
2023/05/19 04:20:27;;;;;;;4.53;3.43;;;17.90;69.50;;;;;;4976362;28;20508;-71
2023/05/19 04:22:56;;;;;;;5.53;2.80;;;17.90;69.50;;;;;;5008443;28;20535;-71
2023/05/19 04:25:27;;;;;;;3.20;2.90;;;17.80;69.40;;;;;;4960592;28;20515;-71
2023/05/19 04:27:56;;;;;;;4.20;2.90;;;17.80;69.40;;;;;;4992262;28;20398;-71
2023/05/19 04:30:23;;;;;;;3.43;3.13;;;17.80;69.50;;;;;;4976058;28;20421;-71
2023/05/19 04:32:50;;;;;;;3.60;2.90;;;17.80;69.60;;;;;;4976021;28;20498;-71
2023/05/19 04:35:16;;;;;;;4.40;3.70;;;17.80;69.70;;;;;;4992181;28;20424;-73
2023/05/19 04:37:45;;;;;;;11.23;4.37;;;17.80;69.70;;;;;;4976194;28;20795;-71
2023/05/19 04:40:16;;;;;;;3.93;3.20;;;17.70;69.70;;;;;;4992529;28;20818;-71
2023/05/19 04:42:44;;;;;;;5.60;3.97;;;17.80;69.90;;;;;;4975948;28;20412;-71
2023/05/19 04:45:14;;;;;;;6.17;3.67;;;17.70;69.90;;;;;;4992186;28;20452;-71
2023/05/19 04:47:45;;;;;;;4.30;3.20;;;17.70;69.90;;;;;;4991946;28;20482;-72
2023/05/19 04:50:15;;;;;;;6.13;3.40;;;17.70;70.00;;;;;;4975984;28;20533;-71
2023/05/19 04:52:45;;;;;;;3.40;3.07;;;17.70;70.10;;;;;;4976356;28;20424;-71
2023/05/19 04:55:14;;;;;;;7.33;3.40;;;17.70;70.20;;;;;;4959594;28;20440;-71
2023/05/19 04:57:46;;;;;;;7.93;3.40;;;17.70;70.20;;;;;;4976231;28;20424;-71
2023/05/19 05:00:14;;;;;;;6.13;3.20;;;17.60;70.20;;;;;;4975951;28;20977;-71
2023/05/19 05:03:03;;;;;;;8.10;3.87;;;17.60;70.20;;;;;;5006287;28;20425;-71
2023/05/19 05:05:33;;;;;;;3.83;3.20;;;17.60;70.30;;;;;;4975984;28;20835;-73
2023/05/19 05:08:02;;;;;;;4.33;3.20;;;17.60;70.40;;;;;;4975661;28;20812;-72
2023/05/19 05:10:33;;;;;;;3.60;2.90;;;17.60;70.40;;;;;;4992203;28;20887;-71
2023/05/19 05:12:59;;;;;;;8.80;3.60;;;17.60;70.60;;;;;;4975788;28;20511;-70
2023/05/19 05:15:28;;;;;;;5.70;3.47;;;17.60;70.70;;;;;;4975833;28;20277;-71
2023/05/19 05:17:58;;;;;;;5.87;3.53;;;17.50;70.60;;;;;;4992406;28;20401;-71
2023/05/19 05:20:26;;;;;;;3.70;3.17;;;17.50;70.60;;;;;;4991648;28;20898;-71
2023/05/19 05:22:56;;;;;;;3.50;3.00;;;17.50;70.70;;;;;;4992121;28;20956;-71
2023/05/19 05:25:25;;;;;;;6.87;3.23;;;17.50;70.80;;;;;;4991917;28;21011;-71
2023/05/19 05:27:57;;;;;;;3.47;3.00;;;17.50;70.80;;;;;;4993243;28;20411;-72
2023/05/19 05:30:25;;;;;;;5.53;4.00;;;17.50;71.00;;;;;;4991808;28;20397;-72
2023/05/19 05:32:55;;;;;;;7.07;3.23;;;17.50;71.10;;;;;;4978819;28;20536;-71
2023/05/19 05:35:35;;;;;;;4.00;3.50;;;17.40;71.00;;;;;;4996032;28;20416;-72
2023/05/19 05:38:05;;;;;;;3.37;3.07;;;17.40;71.00;;;;;;4994455;28;20449;-70
2023/05/19 05:40:35;;;;;;;4.67;3.63;;;17.40;71.00;;;;;;5011186;28;20435;-71
2023/05/19 05:43:02;;;;;;;4.53;3.83;;;17.40;71.10;;;;;;4979695;28;20454;-70
2023/05/19 05:45:31;;;;;;;3.20;2.90;;;17.40;71.20;;;;;;4979131;28;20844;-71
2023/05/19 05:48:02;;;;;;;3.57;3.00;;;17.40;71.20;;;;;;4995529;28;20409;-71
2023/05/19 05:50:32;;;;;;;3.73;2.90;;;17.40;71.30;;;;;;4979064;28;20574;-71
2023/05/19 05:53:05;;;;;;;5.00;3.40;;;17.30;71.20;;;;;;4979312;28;20468;-71
2023/05/19 05:55:37;;;;;;;3.20;2.90;;;17.30;71.30;;;;;;4995525;28;20428;-71
2023/05/19 05:58:04;;;;;;;6.57;3.60;;;17.30;71.30;;;;;;4979216;28;20825;-71
2023/05/19 06:00:30;;;;;;;3.43;2.83;;;17.30;71.40;;;;;;5011440;28;20423;-71
2023/05/19 06:02:57;;;;;;;3.90;3.40;;;17.30;71.40;;;;;;4995107;28;20490;-71
2023/05/19 06:05:25;;;;;;;6.37;3.63;;;17.30;71.40;;;;;;4994983;28;20663;-71
2023/05/19 06:07:54;;;;;;;6.77;3.50;;;17.30;71.50;;;;;;4995122;28;20521;-71
2023/05/19 06:10:26;;;;;;;4.73;2.83;;;17.30;71.40;;;;;;4995055;28;20473;-71
2023/05/19 06:12:58;;;;;;;5.90;3.30;;;17.30;71.50;;;;;;4978793;28;20436;-71
2023/05/19 06:15:27;;;;;;;7.20;3.07;;;17.30;71.60;;;;;;4962914;28;21005;-71
2023/05/19 06:18:17;;;;;;;5.10;3.20;;;17.20;71.50;;;;;;4979357;28;20432;-71
2023/05/19 06:20:52;;;;;;;4.70;2.93;;;17.20;71.50;;;;;;5010296;28;20465;-71
2023/05/19 06:23:20;;;;;;;4.87;3.13;;;17.20;71.60;;;;;;4989957;28;20443;-71
2023/05/19 06:25:46;;;;;;;4.10;3.30;;;17.20;71.80;;;;;;4978447;28;20463;-71
2023/05/19 06:28:15;;;;;;;4.27;3.10;;;17.20;71.80;;;;;;5011121;28;20552;-71
2023/05/19 06:30:43;;;;;;;5.43;3.43;;;17.20;71.80;;;;;;4994737;28;20447;-72
2023/05/19 06:33:23;;;;;;;3.33;3.03;;;17.20;71.80;;;;;;5010604;28;21000;-71
2023/05/19 06:35:50;;;;;;;4.87;3.50;;;17.20;71.90;;;;;;4994651;28;20420;-71
2023/05/19 06:38:16;;;;;;;6.30;3.17;;;17.20;71.90;;;;;;4994636;28;20404;-71
2023/05/19 06:40:42;;;;;;;4.40;3.53;;;17.20;72.00;;;;;;4963036;28;20438;-71
2023/05/19 06:43:10;;;;;;;6.50;3.30;;;17.20;72.00;;;;;;4994354;28;20451;-71
2023/05/19 06:45:58;;;;;;;4.60;3.10;;;17.20;72.00;;;;;;5006808;28;21000;-71
2023/05/19 06:48:27;;;;;;;4.20;2.97;;;17.20;72.00;;;;;;4978206;28;20467;-72
2023/05/19 06:50:58;;;;;;;6.10;3.20;;;17.20;72.00;;;;;;4981282;28;20456;-72
2023/05/19 06:53:26;;;;;;;5.80;3.50;;;17.20;72.00;;;;;;5010634;28;20436;-71
2023/05/19 06:55:56;;;;;;;6.40;3.30;;;17.20;72.10;;;;;;4994411;28;20411;-71
2023/05/19 06:58:25;;;;;;;4.57;2.80;;;17.20;72.10;;;;;;4978226;28;20412;-71
2023/05/19 07:00:52;;;;;;;5.23;2.60;;;17.20;72.10;;;;;;4994376;28;20420;-71
2023/05/19 07:03:18;;;;;;;3.27;2.70;;;17.20;72.20;;;;;;4994191;28;20438;-71
2023/05/19 07:05:46;;;;;;;4.70;3.20;;;17.20;72.20;;;;;;4993958;28;20458;-71
2023/05/19 07:08:14;;;;;;;3.60;2.83;;;17.20;72.10;;;;;;4978073;28;20973;-71
2023/05/19 07:10:40;;;;;;;5.57;2.87;;;17.20;72.00;;;;;;4974753;28;20424;-71
2023/05/19 07:13:10;;;;;;;4.60;3.30;;;17.20;72.00;;;;;;4974265;28;20938;-71
2023/05/19 07:15:38;;;;;;;3.40;2.80;;;17.30;72.10;;;;;;4990601;28;20444;-71
2023/05/19 07:18:05;;;;;;;3.30;3.00;;;17.30;72.10;;;;;;4974594;28;20469;-71
2023/05/19 07:20:33;;;;;;;3.67;3.13;;;17.30;72.20;;;;;;4974656;28;20463;-71
2023/05/19 07:23:01;;;;;;;4.03;2.70;;;17.30;72.20;;;;;;4974328;28;20816;-71
2023/05/19 07:25:30;;;;;;;3.40;3.10;;;17.30;72.20;;;;;;4973946;28;20497;-71
2023/05/19 07:27:56;;;;;;;4.60;2.77;;;17.30;72.10;;;;;;5002211;28;20436;-71
2023/05/19 07:30:27;;;;;;;5.80;2.90;;;17.30;72.00;;;;;;4994578;28;21012;-71
2023/05/19 07:32:53;;;;;;;4.53;3.13;;;17.30;72.00;;;;;;4991950;28;21039;-73
2023/05/19 07:35:21;;;;;;;3.67;2.60;;;17.30;72.20;;;;;;5009934;28;20479;-71
2023/05/19 07:37:50;;;;;;;4.27;2.73;;;17.30;72.10;;;;;;4994585;28;20451;-72
2023/05/19 07:40:16;;;;;;;3.10;2.70;;;17.40;72.30;;;;;;4993608;28;20537;-71
2023/05/19 07:42:43;;;;;;;3.07;2.77;;;17.40;72.30;;;;;;4992185;28;20448;-72
2023/05/19 07:45:10;;;;;;;4.50;3.07;;;17.40;72.30;;;;;;4993282;28;20477;-72
2023/05/19 07:47:36;;;;;;;4.73;3.37;;;17.40;72.30;;;;;;4989966;28;20950;-71
2023/05/19 07:50:08;;;;;;;4.30;3.50;;;17.40;73.00;;;;;;4973751;28;20398;-72
2023/05/19 07:52:34;;;;;;;4.03;2.97;;;17.40;72.30;;;;;;5009564;28;20420;-71
2023/05/19 07:55:02;;;;;;;3.57;2.67;;;17.50;72.40;;;;;;4976184;28;20436;-71
2023/05/19 07:57:28;;;;;;;3.80;2.60;;;17.50;72.40;;;;;;4992899;28;21022;-71
2023/05/19 07:59:54;;;;;;;3.00;2.67;;;17.50;72.20;;;;;;4976713;28;20484;-71
2023/05/19 08:02:20;;;;;;;4.43;2.90;;;17.50;72.20;;;;;;4993878;28;20415;-72
2023/05/19 08:04:49;;;;;;;3.33;2.60;;;17.50;72.90;;;;;;4992759;28;20468;-71
2023/05/19 08:07:14;;;;;;;4.33;2.77;;;17.60;72.20;;;;;;4994047;28;20405;-71
2023/05/19 08:09:41;;;;;;;5.80;3.20;;;17.60;72.10;;;;;;4976556;28;20423;-72
2023/05/19 08:12:09;;;;;;;6.00;3.13;;;17.60;72.10;;;;;;4976966;28;20927;-71
2023/05/19 08:14:37;;;;;;;2.90;2.60;;;17.60;72.00;;;;;;4992792;28;20531;-71
2023/05/19 08:17:05;;;;;;;6.07;3.60;;;17.60;71.90;;;;;;4976762;28;20451;-71
2023/05/19 08:19:31;;;;;;;4.43;2.50;;;17.60;71.80;;;;;;4976637;28;20424;-71
2023/05/19 08:21:59;;;;;;;9.13;3.17;;;17.70;71.80;;;;;;4975849;28;20475;-71
2023/05/19 08:24:31;;;;;;;4.47;2.40;;;17.70;71.70;;;;;;4992368;28;20612;-72
2023/05/19 08:26:59;;;;;;;2.83;2.40;;;17.70;71.60;;;;;;4992489;28;20420;-72
2023/05/19 08:29:30;;;;;;;6.93;2.90;;;17.70;71.80;;;;;;4992809;28;20462;-71
2023/05/19 08:31:59;;;;;;;2.60;2.17;;;17.70;71.70;;;;;;4993628;28;20954;-71
2023/05/19 08:34:25;;;;;;;5.03;2.23;;;17.70;71.60;;;;;;4991732;28;20893;-71
2023/05/19 08:36:52;;;;;;;5.33;2.30;;;17.80;71.80;;;;;;5007398;28;20535;-76
2023/05/19 08:39:22;;;;;;;2.90;2.37;;;17.80;71.80;;;;;;4992730;28;20231;-72
2023/05/19 08:41:52;;;;;;;5.50;2.40;;;17.80;71.70;;;;;;4979663;28;20438;-71
2023/05/19 08:44:21;;;;;;;4.80;2.27;;;17.90;71.80;;;;;;4992458;28;20451;-71
2023/05/19 08:46:53;;;;;;;3.37;2.17;;;17.90;71.70;;;;;;4990728;28;20452;-71
2023/05/19 08:49:22;;;;;;;6.13;2.57;;;17.90;71.40;;;;;;4990781;28;20433;-71
2023/05/19 08:52:06;;;;;;;3.03;2.10;;;17.90;71.40;;;;;;4954407;28;20433;-73
2023/05/19 08:54:45;;;;;;;4.00;2.50;;;18.00;71.50;;;;;;4975297;28;20448;-74
2023/05/19 08:57:17;;;;;;;9.17;2.93;;;18.00;71.50;;;;;;4991445;28;20441;-73
2023/05/19 08:59:43;;;;;;;2.57;2.37;;;18.00;71.40;;;;;;4991351;28;20425;-71
2023/05/19 09:02:11;;;;;;;3.40;2.40;;;18.10;71.30;;;;;;5007994;28;20389;-72
2023/05/19 09:04:39;;;;;;;4.03;2.20;;;18.10;71.00;;;;;;4992644;28;20483;-71
2023/05/19 09:07:05;;;;;;;3.10;2.40;;;18.10;70.80;;;;;;4992180;28;20477;-73
2023/05/19 09:09:31;;;;;;;3.80;2.13;;;18.10;70.50;;;;;;4996172;28;20513;-72
2023/05/19 09:11:57;;;;;;;4.63;2.00;;;18.20;70.50;;;;;;4993926;28;20840;-74
2023/05/19 09:14:26;;;;;;;4.53;2.30;;;18.20;70.50;;;;;;4994778;28;20895;-73
2023/05/19 09:16:54;;;;;;;3.43;2.17;;;18.20;70.30;;;;;;4975378;28;20449;-74
2023/05/19 09:19:21;;;;;;;4.90;1.90;;;18.30;70.20;;;;;;4995930;28;20799;-74
2023/05/19 09:21:59;;;;;;;2.17;1.87;;;18.30;70.30;;;;;;5011244;28;20413;-73
2023/05/19 09:24:27;;;;;;;6.57;2.03;;;18.40;69.90;;;;;;5025597;28;20449;-72
2023/05/19 09:26:56;;;;;;;4.13;2.40;;;18.40;69.60;;;;;;5013780;28;20429;-78
2023/05/19 09:29:23;;;;;;;4.03;2.73;;;18.40;69.60;;;;;;5011705;28;20435;-75
2023/05/19 09:31:50;;;;;;;2.67;2.17;;;18.40;69.70;;;;;;4995426;28;21007;-75
2023/05/19 09:34:17;;;;;;;2.30;2.10;;;18.50;70.00;;;;;;4978128;28;20510;-75
2023/05/19 09:36:51;;;;;;;3.73;2.03;;;18.50;69.80;;;;;;4994554;28;20847;-75
2023/05/19 09:39:19;;;;;;;3.40;2.40;;;18.50;70.00;;;;;;4961941;28;20726;-72
2023/05/19 09:41:45;;;;;;;9.30;2.57;;;18.50;69.80;;;;;;4994653;28;20456;-77
2023/05/19 09:44:31;;;;;;;3.43;2.07;;;18.60;69.70;;;;;;4978057;28;20456;-76
2023/05/19 09:46:59;;;;;;;6.60;2.40;;;18.70;69.50;;;;;;4993620;28;20418;-74
2023/05/19 09:49:31;;;;;;;2.50;2.00;;;18.70;69.40;;;;;;4977940;28;20433;-76
2023/05/19 09:52:07;;;;;;;3.37;2.10;;;18.70;69.20;;;;;;5010218;28;20404;-76
2023/05/19 09:54:34;;;;;;;4.43;2.60;;;18.80;69.10;;;;;;4994134;28;20433;-76
2023/05/19 09:57:07;;;;;;;3.10;2.17;;;18.80;69.10;;;;;;5010188;28;20426;-76
2023/05/19 09:59:33;;;;;;;4.67;1.90;;;18.80;68.80;;;;;;5010133;28;20766;-76
2023/05/19 10:02:01;;;;;;;4.10;2.10;;;18.90;69.00;;;;;;4993563;28;20464;-76
2023/05/19 10:04:29;;;;;;;2.07;1.70;;;18.90;69.20;;;;;;4977436;28;20453;-78
2023/05/19 10:06:58;;;;;;;3.97;1.80;;;18.90;69.10;;;;;;4994002;28;20421;-75
2023/05/19 10:09:28;;;;;;;3.73;2.13;;;18.90;69.10;;;;;;4977572;28;20402;-75
2023/05/19 10:11:56;;;;;;;3.47;2.60;;;19.00;69.10;;;;;;4994627;28;20413;-76
2023/05/19 10:14:24;;;;;;;5.37;1.87;;;19.10;69.50;;;;;;4977404;28;20459;-77
2023/05/19 10:16:54;;;;;;;2.97;2.10;;;19.10;69.30;;;;;;4993364;28;20429;-77
2023/05/19 10:19:21;;;;;;;3.20;2.40;;;19.10;69.20;;;;;;4977584;28;20974;-75
2023/05/19 10:21:48;;;;;;;2.47;1.80;;;19.20;69.30;;;;;;4994922;28;20421;-76
2023/05/19 10:24:15;;;;;;;5.07;2.30;;;19.20;69.10;;;;;;4993610;28;20445;-76
2023/05/19 10:26:50;;;;;;;4.67;2.43;;;19.20;69.10;;;;;;4994430;28;20484;-75
2023/05/19 10:29:22;;;;;;;6.90;1.90;;;19.30;69.00;;;;;;4995370;28;20932;-76
2023/05/19 10:31:52;;;;;;;5.13;2.10;;;19.30;68.80;;;;;;4993430;28;20454;-76
2023/05/19 10:34:20;;;;;;;3.60;2.47;;;19.40;68.90;;;;;;4993534;28;20449;-76
2023/05/19 10:36:49;;;;;;;3.60;2.00;;;19.40;68.80;;;;;;4994550;28;20437;-76
2023/05/19 10:39:34;;;;;;;2.33;2.10;;;19.40;68.70;;;;;;4994194;28;20449;-76
2023/05/19 10:42:10;;;;;;;6.00;2.13;;;19.50;68.80;;;;;;4993202;28;20822;-76
2023/05/19 10:44:41;;;;;;;6.30;2.70;;;19.50;68.50;;;;;;4961151;28;20963;-76
2023/05/19 10:47:07;;;;;;;4.40;2.03;;;19.60;68.50;;;;;;4994259;28;20426;-76
2023/05/19 10:49:35;;;;;;;6.37;2.50;;;19.60;68.40;;;;;;4976834;28;20797;-76
2023/05/19 10:52:04;;;;;;;3.73;2.00;;;19.60;68.40;;;;;;4993926;28;20530;-76
2023/05/19 10:54:42;;;;;;;3.70;2.20;;;19.70;68.40;;;;;;4960764;28;20469;-76
2023/05/19 10:57:12;;;;;;;3.53;1.93;;;19.70;68.30;;;;;;4993079;28;20442;-76
2023/05/19 10:59:38;;;;;;;3.17;2.10;;;19.70;68.30;;;;;;4993996;28;20416;-75
2023/05/19 11:02:05;;;;;;;3.63;2.00;;;19.70;68.20;;;;;;4992918;28;20426;-76
2023/05/19 11:04:45;;;;;;;3.47;2.00;;;19.80;68.40;;;;;;4992561;28;20449;-76
2023/05/19 11:07:19;;;;;;;3.00;2.20;;;19.80;68.20;;;;;;4993666;28;20785;-76
2023/05/19 11:09:50;;;;;;;4.00;2.50;;;19.90;68.20;;;;;;4992714;28;20442;-76
2023/05/19 11:12:23;;;;;;;2.00;1.80;;;19.90;68.20;;;;;;4993748;28;20395;-76
2023/05/19 11:14:54;;;;;;;3.47;2.17;;;19.90;68.10;;;;;;4992771;28;20439;-78
2023/05/19 11:17:22;;;;;;;2.60;1.93;;;20.00;68.10;;;;;;4960276;28;20438;-77
2023/05/19 11:19:56;;;;;;;3.77;2.47;;;20.00;68.10;;;;;;5009148;28;20420;-76
2023/05/19 11:22:27;;;;;;;2.30;2.03;;;20.10;68.20;;;;;;4992221;28;20412;-76
2023/05/19 11:24:59;;;;;;;2.20;2.00;;;20.10;68.00;;;;;;4993561;28;20448;-75
2023/05/19 11:27:34;;;;;;;4.80;2.30;;;20.10;68.00;;;;;;4992410;28;20415;-76
2023/05/19 11:30:13;;;;;;;3.70;2.33;;;20.20;68.20;;;;;;4991523;28;20450;-77
2023/05/19 11:32:41;;;;;;;2.50;2.03;;;20.20;67.70;;;;;;4991980;28;20445;-76
2023/05/19 11:35:08;;;;;;;3.20;2.30;;;20.20;67.30;;;;;;5008725;28;20415;-76
2023/05/19 11:37:39;;;;;;;2.97;2.00;;;20.30;67.20;;;;;;4992346;28;20423;-76
2023/05/19 11:40:11;;;;;;;2.30;1.90;;;20.30;66.90;;;;;;5046975;23;20524;-77
2023/05/19 11:42:44;;;;;;;3.70;2.47;;;20.30;66.90;;;;;;4997211;28;20860;-76
2023/05/19 11:45:13;;;;;;;2.60;1.97;;;20.40;67.10;;;;;;4972594;28;20456;-76
2023/05/19 11:47:41;;;;;;;3.03;2.50;;;20.40;67.20;;;;;;4973482;28;20515;-76
2023/05/19 11:50:10;;;;;;;4.03;2.10;;;20.40;67.30;;;;;;4973763;28;20425;-76
2023/05/19 11:52:36;;;;;;;3.63;2.00;;;20.50;67.40;;;;;;4972150;28;20898;-76
2023/05/19 11:55:08;;;;;;;5.23;2.40;;;20.50;67.30;;;;;;4973643;28;20420;-76
2023/05/19 11:57:35;;;;;;;3.27;2.27;;;20.60;67.30;;;;;;4956467;28;20440;-76
2023/05/19 12:00:07;;;;;;;5.40;1.97;;;20.60;67.00;;;;;;4988428;28;20465;-76
2023/05/19 12:02:35;;;;;;;4.73;2.30;;;20.60;67.00;;;;;;4956457;28;20436;-76
2023/05/19 12:05:03;;;;;;;3.20;2.37;;;20.60;67.00;;;;;;4973209;28;21073;-76
2023/05/19 12:07:31;;;;;;;3.33;2.27;;;20.70;67.00;;;;;;4988478;28;20284;-76
2023/05/19 12:10:02;;;;;;;4.43;2.30;;;20.70;66.90;;;;;;4956154;28;20418;-76
2023/05/19 12:12:28;;;;;;;3.77;2.10;;;20.70;66.80;;;;;;4987722;28;20445;-76
2023/05/19 12:14:54;;;;;;;2.57;1.93;;;20.80;66.90;;;;;;4988445;28;20429;-76
2023/05/19 12:17:23;;;;;;;4.17;2.30;;;20.80;66.70;;;;;;4955906;28;20483;-76
2023/05/19 12:19:51;;;;;;;2.63;2.43;;;20.80;66.70;;;;;;4971946;28;20166;-76
2023/05/19 12:22:20;;;;;;;4.03;2.27;;;20.90;66.70;;;;;;4971802;28;20433;-76
2023/05/19 12:24:46;;;;;;;5.60;2.47;;;20.90;66.70;;;;;;4955648;28;20515;-76
2023/05/19 12:27:27;;;;;;;3.33;2.53;;;20.90;66.50;;;;;;4971928;28;20421;-76
2023/05/19 12:29:56;;;;;;;3.53;2.40;;;21.00;66.60;;;;;;4973271;28;20513;-76
2023/05/19 12:32:27;;;;;;;4.73;2.70;;;20.90;66.40;;;;;;4972668;28;20414;-76
2023/05/19 12:34:59;;;;;;;4.37;2.43;;;21.00;66.40;;;;;;4986862;28;20466;-76
2023/05/19 12:37:32;;;;;;;2.43;2.20;;;21.00;66.30;;;;;;4988456;28;20441;-76
2023/05/19 12:39:58;;;;;;;3.93;2.50;;;21.10;66.40;;;;;;4955440;28;20428;-76
2023/05/19 12:42:31;;;;;;;4.77;1.87;;;21.10;66.20;;;;;;4971629;28;20521;-76
2023/05/19 12:44:59;;;;;;;3.30;2.07;;;21.10;65.90;;;;;;4971615;28;20479;-75
2023/05/19 12:47:37;;;;;;;6.13;2.20;;;21.20;66.10;;;;;;4971730;28;20424;-76
2023/05/19 12:50:07;;;;;;;4.30;2.60;;;21.20;66.00;;;;;;4955610;28;20817;-76
2023/05/19 12:52:40;;;;;;;3.63;2.17;;;21.30;65.90;;;;;;4972649;28;20915;-76
2023/05/19 12:55:11;;;;;;;4.20;2.47;;;21.30;66.00;;;;;;4971677;28;20782;-76
2023/05/19 12:57:42;;;;;;;2.97;2.67;;;21.30;65.80;;;;;;4956096;28;20430;-76
2023/05/19 13:00:23;;;;;;;2.57;2.10;;;21.30;66.00;;;;;;4971672;28;20429;-76
2023/05/19 13:02:58;;;;;;;3.07;2.43;;;21.40;66.10;;;;;;4987771;28;20453;-76
2023/05/19 13:05:29;;;;;;;3.70;2.50;;;21.40;66.10;;;;;;4987383;28;20644;-76